Weather at Lannion-Côte de Granit Airport

Public forecast

Using degrees Celsius for public forecast. Weather courtesy of forecast.io.

Current aviation weather report (METAR) for Lannion-Côte de Granit Airport

2024/05/29 17:00 (retrieved 26 minutes ago)

LFRO 291700Z AUTO 28012KT 9999 BKN012 BKN025 OVC042 15/12 Q1013

Closest aviation forecast (TAF) to Lannion-Côte de Granit Airport

Closest forecast is Brest Bretagne Airport, 41.9 nm (77.5 km) WSW.

2024/05/29 13:57 Ammendment (retrieved 3 hours ago)

TAF AMD LFRB 291318Z 2913/3018 28010KT 9999 SCT008 BKN018 TEMPO 2913/2915 BKN008 TEMPO 2915/3008 BKN012 PROB40 TEMPO 3000/3006 BKN008 BECMG 3003/3006 33012KT TEMPO 3006/3018 33015G25KT PROB30 TEMPO 3008/3012 SHRA BKN014